Time;durP1;ratioP1;P1;durP2;ratioP2;P2;SDS_P1;SDS_P2;PMS_P1;PMS_P2;Temp;Humidity;BMP_temperature;BMP_pressure;BME280_temperature;BME280_humidity;BME280_pressure;Samples;Min_cycle;Max_cycle;Signal;HPM_P1;HPM_P2
2022/08/03 00:01:00;;;;;;;1.70;1.60;;;;;;;24.50;53.27;98146.03;4994083;28;20179;-60
2022/08/03 00:03:25;;;;;;;2.05;1.40;;;;;;;24.47;53.62;98149.09;4993730;28;20656;-61
2022/08/03 00:05:51;;;;;;;1.65;1.55;;;;;;;24.50;53.54;98147.88;4993723;28;20226;-61
2022/08/03 00:08:17;;;;;;;1.58;1.52;;;;;;;24.42;53.87;98148.03;4993984;28;20224;-60
2022/08/03 00:10:42;;;;;;;1.42;1.42;;;;;;;24.38;54.06;98142.31;5008685;28;20286;-61
2022/08/03 00:13:08;;;;;;;1.60;1.50;;;;;;;24.35;54.10;98145.38;4993630;28;20565;-60
2022/08/03 00:15:33;;;;;;;1.60;1.50;;;;;;;24.38;54.15;98144.97;4993836;28;20183;-60
2022/08/03 00:17:58;;;;;;;1.42;1.42;;;;;;;24.29;54.26;98140.88;4993837;28;20171;-60
2022/08/03 00:20:24;;;;;;;1.98;1.45;;;;;;;24.31;54.38;98141.50;4993476;28;20648;-60
2022/08/03 00:22:50;;;;;;;2.17;1.45;;;;;;;24.23;54.38;98141.69;4993447;28;20571;-61
2022/08/03 00:25:16;;;;;;;1.70;1.60;;;;;;;24.24;54.87;98135.38;4993406;28;20171;-60
2022/08/03 00:27:41;;;;;;;2.33;1.60;;;;;;;24.25;54.83;98139.63;4993657;28;20225;-60
2022/08/03 00:30:07;;;;;;;1.75;1.65;;;;;;;24.17;55.11;98138.19;4993221;28;20199;-60
2022/08/03 00:32:32;;;;;;;3.42;1.67;;;;;;;24.03;55.33;98143.41;4993059;28;20708;-62
2022/08/03 00:34:58;;;;;;;1.58;1.48;;;;;;;24.01;55.02;98134.03;4991994;28;20179;-61
2022/08/03 00:37:23;;;;;;;1.80;1.60;;;;;;;24.03;54.87;98130.19;4993442;28;20193;-60
2022/08/03 00:39:49;;;;;;;3.15;1.70;;;;;;;24.01;55.26;98134.03;4992418;28;20176;-60
2022/08/03 00:42:14;;;;;;;1.73;1.63;;;;;;;23.90;55.74;98131.13;4993375;28;20250;-60
2022/08/03 00:44:44;;;;;;;1.70;1.60;;;;;;;23.93;55.36;98131.56;4993339;28;20179;-61
2022/08/03 00:47:10;;;;;;;3.03;1.35;;;;;;;24.04;55.56;98142.38;4993247;28;20615;-61
2022/08/03 00:49:37;;;;;;;1.33;1.33;;;;;;;24.08;55.34;98140.97;4992971;28;20203;-61
2022/08/03 00:52:03;;;;;;;1.52;1.50;;;;;;;24.15;55.32;98146.31;4993013;28;20225;-61
2022/08/03 00:54:29;;;;;;;1.40;1.30;;;;;;;24.13;55.28;98148.31;4992937;28;20171;-62
2022/08/03 00:56:55;;;;;;;2.35;1.60;;;;;;;24.06;55.41;98136.09;4992918;28;20175;-62
2022/08/03 00:59:21;;;;;;;1.63;1.52;;;;;;;24.02;55.76;98151.53;4993057;28;20198;-61
2022/08/03 01:01:46;;;;;;;1.50;1.40;;;;;;;23.98;55.72;98149.47;4993135;28;20236;-61
2022/08/03 01:04:12;;;;;;;1.90;1.80;;;;;;;23.92;55.54;98148.44;4992826;28;20174;-61
2022/08/03 01:07:06;;;;;;;1.98;1.70;;;;;;;23.81;55.93;98152.38;4992747;28;20171;-62
2022/08/03 01:09:35;;;;;;;1.65;1.55;;;;;;;23.78;56.15;98150.13;4987072;28;20581;-62
2022/08/03 01:12:09;;;;;;;1.63;1.52;;;;;;;23.73;56.24;98141.97;4992867;28;20181;-61
2022/08/03 01:14:47;;;;;;;1.50;1.50;;;;;;;23.63;56.82;98145.16;4992840;28;20163;-61
2022/08/03 01:17:24;;;;;;;1.58;1.50;;;;;;;23.63;57.06;98152.06;4992802;28;20170;-61
2022/08/03 01:19:59;;;;;;;1.75;1.60;;;;;;;23.56;57.26;98150.41;4992845;28;20190;-61
2022/08/03 01:22:49;;;;;;;1.60;1.50;;;;;;;23.52;57.72;98148.31;4992860;28;20163;-61
2022/08/03 01:25:39;;;;;;;1.70;1.60;;;;;;;23.52;57.64;98145.69;4992592;28;20266;-62
2022/08/03 01:28:25;;;;;;;1.90;1.80;;;;;;;23.50;57.89;98147.72;4992707;28;20160;-62
2022/08/03 01:30:55;;;;;;;1.75;1.65;;;;;;;23.55;57.58;98140.03;4992887;28;20238;-61
2022/08/03 01:33:31;;;;;;;2.08;1.98;;;;;;;23.60;57.68;98140.28;4992269;28;20219;-61
2022/08/03 01:36:00;;;;;;;1.95;1.70;;;;;;;23.69;57.11;98139.91;4993047;28;20579;-61
2022/08/03 01:38:32;;;;;;;2.13;1.50;;;;;;;23.71;56.98;98140.53;4992465;28;20182;-61
2022/08/03 01:41:06;;;;;;;1.75;1.65;;;;;;;23.66;57.14;98134.22;4992874;28;20163;-61
2022/08/03 01:43:32;;;;;;;3.17;1.75;;;;;;;23.69;56.99;98124.88;4992673;28;20693;-61
2022/08/03 01:45:58;;;;;;;1.60;1.50;;;;;;;23.74;56.80;98138.31;4992398;28;20262;-61
2022/08/03 01:48:25;;;;;;;1.55;1.50;;;;;;;23.67;57.05;98131.38;4992398;28;20216;-61
2022/08/03 01:50:53;;;;;;;1.80;1.70;;;;;;;23.72;57.07;98138.72;4994391;28;20195;-61
2022/08/03 01:53:20;;;;;;;2.00;1.90;;;;;;;23.67;57.45;98137.47;4996221;28;20671;-61
2022/08/03 01:55:48;;;;;;;1.85;1.75;;;;;;;23.61;57.75;98132.13;4996119;28;20664;-61
2022/08/03 01:58:15;;;;;;;1.45;1.45;;;;;;;23.41;58.23;98147.03;4996399;28;20171;-61
2022/08/03 02:00:42;;;;;;;2.30;2.10;;;;;;;23.33;58.89;98144.53;4996080;28;20167;-61
2022/08/03 02:03:11;;;;;;;2.55;1.90;;;;;;;23.25;59.57;98146.50;4996020;28;20632;-61
2022/08/03 02:05:38;;;;;;;1.98;1.88;;;;;;;23.14;60.24;98144.34;4996207;28;20175;-62
2022/08/03 02:08:09;;;;;;;1.60;1.50;;;;;;;23.02;60.83;98140.59;4996173;28;20183;-61
2022/08/03 02:10:36;;;;;;;1.90;1.80;;;;;;;23.00;60.92;98139.94;4996001;28;20284;-61
2022/08/03 02:13:04;;;;;;;1.95;1.85;;;;;;;23.00;60.98;98140.75;4996119;28;20183;-61
2022/08/03 02:15:31;;;;;;;1.98;1.88;;;;;;;23.05;60.57;98142.81;4995811;28;20167;-61
2022/08/03 02:17:57;;;;;;;2.28;1.83;;;;;;;23.04;60.81;98139.38;4995738;28;20186;-62
2022/08/03 02:20:24;;;;;;;1.95;1.85;;;;;;;23.03;60.82;98129.84;4995687;28;20179;-62
2022/08/03 02:22:49;;;;;;;2.15;1.95;;;;;;;23.12;60.78;98146.34;4995704;28;20242;-62
2022/08/03 02:25:15;;;;;;;3.70;1.63;;;;;;;23.12;60.67;98147.16;4995677;28;20175;-61
2022/08/03 02:28:07;;;;;;;1.92;1.80;;;;;;;23.05;60.43;98134.91;4995785;28;20648;-61
2022/08/03 02:30:39;;;;;;;1.90;1.73;;;;;;;23.13;60.13;98146.16;4995107;28;20297;-61
2022/08/03 02:33:15;;;;;;;1.70;1.60;;;;;;;23.08;60.63;98147.75;4995291;28;20716;-61
2022/08/03 02:35:42;;;;;;;2.53;1.85;;;;;;;22.96;61.47;98147.41;4995436;28;20170;-60
2022/08/03 02:38:10;;;;;;;2.03;1.90;;;;;;;22.87;61.78;98139.81;4995423;28;20183;-61
2022/08/03 02:40:37;;;;;;;1.98;1.88;;;;;;;22.98;61.49;98147.22;4995292;28;20179;-61
2022/08/03 02:43:09;;;;;;;1.95;1.85;;;;;;;22.99;61.27;98141.78;4995567;28;20251;-61
2022/08/03 02:45:40;;;;;;;2.15;1.95;;;;;;;23.09;60.75;98149.38;4995451;28;20167;-61
2022/08/03 02:48:08;;;;;;;1.73;1.63;;;;;;;23.06;60.66;98147.94;4995696;28;20195;-62
2022/08/03 02:50:34;;;;;;;1.92;1.83;;;;;;;23.12;59.85;98133.13;4995145;28;20205;-61
2022/08/03 02:53:01;;;;;;;2.78;1.90;;;;;;;23.26;59.09;98142.84;4995376;28;20210;-62
2022/08/03 02:55:28;;;;;;;2.30;2.10;;;;;;;23.23;59.34;98148.50;4995323;28;20550;-62
2022/08/03 02:57:56;;;;;;;1.88;1.77;;;;;;;23.22;59.41;98152.16;4995062;28;20182;-61
2022/08/03 03:00:23;;;;;;;1.80;1.70;;;;;;;23.22;59.43;98145.06;4995544;28;20191;-61
2022/08/03 03:02:49;;;;;;;1.90;1.80;;;;;;;23.16;59.96;98152.88;4994433;28;20541;-62
2022/08/03 03:05:15;;;;;;;2.45;1.83;;;;;;;23.20;59.97;98151.53;4994961;28;20179;-61
2022/08/03 03:07:41;;;;;;;1.90;1.80;;;;;;;23.20;59.97;98149.69;4994859;28;20178;-62
2022/08/03 03:10:08;;;;;;;2.25;1.90;;;;;;;23.23;59.77;98156.41;4994890;28;20187;-62
2022/08/03 03:12:35;;;;;;;1.92;1.80;;;;;;;23.20;59.84;98154.16;4994869;28;20178;-61
2022/08/03 03:15:01;;;;;;;1.98;1.88;;;;;;;23.21;59.57;98161.91;4994936;28;20262;-61
2022/08/03 03:17:29;;;;;;;1.80;1.70;;;;;;;23.18;59.77;98151.72;4994727;28;20274;-61
2022/08/03 03:19:56;;;;;;;1.70;1.60;;;;;;;23.13;59.89;98166.47;4994799;28;20175;-61
2022/08/03 03:22:23;;;;;;;2.03;1.70;;;;;;;23.20;59.52;98168.16;4994610;28;20203;-61
2022/08/03 03:24:50;;;;;;;2.00;1.88;;;;;;;23.12;59.96;98165.66;4994543;28;20180;-61
2022/08/03 03:27:16;;;;;;;2.10;2.00;;;;;;;22.95;60.54;98164.25;4994470;28;20183;-61
2022/08/03 03:29:42;;;;;;;1.83;1.70;;;;;;;23.05;60.88;98179.78;4994677;28;20205;-61
2022/08/03 03:32:08;;;;;;;3.72;1.83;;;;;;;23.02;61.09;98175.69;4994227;28;20231;-61
2022/08/03 03:34:35;;;;;;;2.20;2.00;;;;;;;23.04;61.31;98180.78;4994502;28;20194;-61
2022/08/03 03:37:01;;;;;;;2.03;1.85;;;;;;;22.99;60.91;98183.16;4994310;28;20176;-61
2022/08/03 03:39:26;;;;;;;1.73;1.63;;;;;;;23.11;60.82;98181.66;4994313;28;20179;-62
2022/08/03 03:41:52;;;;;;;2.15;1.77;;;;;;;23.14;60.35;98187.38;4994212;28;20167;-62
2022/08/03 03:44:17;;;;;;;2.13;1.92;;;;;;;23.16;60.42;98184.56;4994441;28;20185;-62
2022/08/03 03:46:43;;;;;;;1.83;1.73;;;;;;;23.20;60.14;98185.84;4994177;28;20254;-62
2022/08/03 03:49:09;;;;;;;1.98;1.88;;;;;;;23.23;59.94;98190.75;4994094;28;20191;-62
2022/08/03 03:51:34;;;;;;;2.10;1.90;;;;;;;23.32;59.42;98186.97;4994117;28;20560;-62
2022/08/03 03:54:03;;;;;;;2.03;1.83;;;;;;;23.37;59.01;98193.31;4994283;28;20198;-62
2022/08/03 03:56:28;;;;;;;2.00;1.90;;;;;;;23.34;59.39;98192.88;4994208;28;20195;-62
2022/08/03 03:58:55;;;;;;;3.13;2.13;;;;;;;23.30;59.23;98183.72;4994204;28;20182;-61
2022/08/03 04:01:21;;;;;;;1.73;1.63;;;;;;;23.33;59.80;98194.72;4993864;28;20190;-61
2022/08/03 04:03:46;;;;;;;1.70;1.60;;;;;;;23.26;59.82;98187.72;4993915;28;20182;-61
2022/08/03 04:11:27;;;;;;;2.10;2.00;;;;;;;23.38;60.60;98204.69;4993982;28;20183;-62
2022/08/03 04:13:59;;;;;;;1.90;1.80;;;;;;;23.40;60.54;98206.16;4993782;28;20179;-62
2022/08/03 04:16:29;;;;;;;2.28;1.88;;;;;;;23.39;60.27;98198.41;4993592;28;20179;-62
2022/08/03 04:19:00;;;;;;;2.33;2.20;;;;;;;23.41;59.83;98199.84;4993486;28;20629;-62
2022/08/03 04:21:27;;;;;;;3.15;2.10;;;;;;;23.20;59.47;98165.53;4993782;28;20590;-63
2022/08/03 04:23:57;;;;;;;2.42;2.20;;;;;;;23.55;59.01;98208.72;4993459;28;20178;-62
2022/08/03 04:26:28;;;;;;;2.28;2.13;;;;;;;23.65;58.98;98212.66;4993723;28;20194;-62
2022/08/03 04:28:54;;;;;;;2.28;2.08;;;;;;;23.65;58.60;98210.00;4993325;28;20222;-62
2022/08/03 04:31:22;;;;;;;3.92;1.92;;;;;;;23.71;58.48;98216.34;4993464;28;20175;-63
2022/08/03 04:33:50;;;;;;;2.10;1.92;;;;;;;23.68;58.57;98218.34;4993068;28;20234;-62
2022/08/03 04:36:20;;;;;;;2.53;2.33;;;;;;;23.65;58.50;98212.66;4993262;28;20175;-62
2022/08/03 04:39:05;;;;;;;2.70;2.08;;;;;;;23.75;58.59;98223.69;4993485;28;20183;-62
2022/08/03 04:41:33;;;;;;;2.10;2.00;;;;;;;23.77;58.63;98227.78;4993481;28;20159;-63
2022/08/03 04:44:03;;;;;;;2.08;1.98;;;;;;;23.71;58.76;98233.00;4993289;28;20202;-63
2022/08/03 04:46:33;;;;;;;2.13;2.03;;;;;;;23.72;58.76;98239.13;4993350;28;20191;-62
2022/08/03 04:48:59;;;;;;;2.30;2.05;;;;;;;23.67;59.24;98224.66;4992983;28;20179;-62
2022/08/03 04:51:25;;;;;;;4.78;2.00;;;;;;;23.79;59.13;98238.97;4993012;28;20617;-61
2022/08/03 04:53:50;;;;;;;2.15;2.05;;;;;;;23.83;58.94;98243.88;4992959;28;20566;-61
2022/08/03 04:56:15;;;;;;;2.22;2.08;;;;;;;23.83;59.19;98243.88;4992949;28;20175;-62
2022/08/03 04:58:41;;;;;;;2.05;1.92;;;;;;;23.80;59.22;98253.81;4993137;28;20171;-61
2022/08/03 05:01:06;;;;;;;3.50;2.15;;;;;;;23.85;59.32;98251.41;4993123;28;20229;-61
2022/08/03 05:03:32;;;;;;;2.42;2.03;;;;;;;23.85;59.35;98246.13;4993532;28;20179;-61
2022/08/03 05:05:57;;;;;;;3.92;2.17;;;;;;;23.96;59.43;98251.94;4992819;28;20679;-61
2022/08/03 05:08:23;;;;;;;3.47;2.25;;;;;;;23.90;59.10;98247.44;4992966;28;20171;-62
2022/08/03 05:10:48;;;;;;;3.20;2.45;;;;;;;23.97;58.85;98253.56;4992944;28;20400;-62
2022/08/03 05:13:14;;;;;;;3.25;2.28;;;;;;;23.96;58.70;98251.94;4992755;28;20171;-62
2022/08/03 05:15:40;;;;;;;2.25;2.15;;;;;;;24.07;58.49;98254.06;4993292;28;20179;-61
2022/08/03 05:18:06;;;;;;;2.30;2.20;;;;;;;24.09;58.68;98252.84;4992963;28;20175;-61
2022/08/03 05:20:31;;;;;;;2.70;2.40;;;;;;;24.08;58.63;98247.75;4992869;28;20297;-62
2022/08/03 05:22:58;;;;;;;2.72;2.53;;;;;;;24.08;58.54;98250.41;4992611;28;20618;-61
2022/08/03 05:25:23;;;;;;;2.28;2.17;;;;;;;24.12;58.58;98246.38;4995844;28;20175;-62
2022/08/03 05:27:49;;;;;;;2.42;2.22;;;;;;;24.10;58.37;98250.00;4999297;28;20532;-61
2022/08/03 05:30:15;;;;;;;2.47;2.30;;;;;;;24.11;58.65;98256.09;4997743;28;20221;-62
2022/08/03 05:32:40;;;;;;;2.72;2.53;;;;;;;24.15;58.40;98255.53;4998963;28;20229;-61
2022/08/03 05:35:06;;;;;;;3.08;2.20;;;;;;;24.04;58.95;98250.75;4999184;28;20556;-61
2022/08/03 05:37:31;;;;;;;1.90;1.80;;;;;;;23.92;59.26;98251.50;4999041;28;20174;-61
2022/08/03 05:39:57;;;;;;;2.38;2.17;;;;;;;23.98;59.26;98265.78;4999034;28;20522;-61
2022/08/03 05:42:22;;;;;;;2.47;2.38;;;;;;;23.85;59.90;98256.72;4999203;28;20561;-62
2022/08/03 05:44:47;;;;;;;2.53;2.33;;;;;;;23.78;59.58;98253.19;4999191;28;20179;-62
2022/08/03 05:47:13;;;;;;;2.58;2.38;;;;;;;23.91;59.48;98260.47;4998917;28;20175;-62
2022/08/03 05:49:38;;;;;;;2.58;1.88;;;;;;;23.99;59.67;98265.59;4998828;28;20543;-62
2022/08/03 05:52:04;;;;;;;2.00;1.90;;;;;;;24.06;59.42;98268.28;4998851;28;20602;-62
2022/08/03 05:54:29;;;;;;;2.20;2.10;;;;;;;24.10;59.09;98271.16;4998619;28;20179;-62
2022/08/03 05:56:55;;;;;;;2.10;1.90;;;;;;;24.04;58.99;98266.63;4998217;28;20174;-63
2022/08/03 05:59:20;;;;;;;2.53;2.30;;;;;;;24.08;59.22;98267.88;4998965;28;20555;-62
2022/08/03 06:01:46;;;;;;;2.65;2.45;;;;;;;24.20;58.79;98281.41;4999063;28;20171;-62
2022/08/03 06:04:12;;;;;;;2.53;2.33;;;;;;;24.20;58.84;98271.63;4997569;28;20175;-63
2022/08/03 06:06:37;;;;;;;2.40;2.30;;;;;;;24.10;58.86;98276.44;4998785;28;20675;-62
2022/08/03 06:09:03;;;;;;;2.15;2.00;;;;;;;24.23;58.71;98280.19;4998630;28;20171;-62
2022/08/03 06:11:28;;;;;;;3.25;2.40;;;;;;;24.23;59.17;98279.19;4997841;28;20471;-62
2022/08/03 06:13:53;;;;;;;2.70;2.50;;;;;;;24.30;59.26;98277.41;4997460;28;20714;-63
2022/08/03 06:16:19;;;;;;;2.17;2.08;;;;;;;24.35;59.16;98267.06;4998719;28;20627;-62
2022/08/03 06:18:45;;;;;;;5.68;2.70;;;;;;;24.55;58.19;98278.53;4998618;28;20536;-62
2022/08/03 06:21:10;;;;;;;2.70;2.50;;;;;;;24.59;58.19;98287.75;4998792;28;20175;-63
2022/08/03 06:23:36;;;;;;;2.78;2.42;;;;;;;24.63;57.92;98283.72;4998652;28;20624;-63
2022/08/03 06:26:01;;;;;;;3.47;2.38;;;;;;;24.72;57.42;98281.72;4998490;28;20716;-63
2022/08/03 06:28:27;;;;;;;2.33;2.17;;;;;;;24.74;57.69;98280.50;4998521;28;20237;-63
2022/08/03 06:30:52;;;;;;;4.72;2.70;;;;;;;24.78;57.53;98284.38;4997466;28;20245;-62
2022/08/03 06:33:18;;;;;;;2.70;2.50;;;;;;;24.91;57.03;98284.44;4998203;28;20688;-62
2022/08/03 06:35:43;;;;;;;2.50;2.38;;;;;;;24.95;57.29;98288.31;4998731;28;20179;-62
2022/08/03 06:38:09;;;;;;;2.20;2.10;;;;;;;25.04;57.07;98292.44;4994260;28;20179;-62
2022/08/03 06:40:38;;;;;;;2.55;2.35;;;;;;;25.05;57.03;98291.44;4995671;28;20190;-62
2022/08/03 06:43:05;;;;;;;3.25;2.42;;;;;;;25.11;56.15;98293.28;4995619;28;20179;-63
2022/08/03 06:45:32;;;;;;;2.40;2.13;;;;;;;25.16;56.01;98296.16;4995587;28;20179;-63
2022/08/03 06:48:10;;;;;;;3.47;2.17;;;;;;;25.16;56.70;98298.81;4995560;28;20207;-63
2022/08/03 06:50:38;;;;;;;2.28;1.95;;;;;;;25.22;56.68;98291.88;4995164;28;20194;-62
2022/08/03 06:53:04;;;;;;;8.23;2.03;;;;;;;25.28;56.07;98297.22;4995147;28;20269;-62
2022/08/03 06:55:30;;;;;;;2.42;2.20;;;;;;;25.25;56.33;98302.91;4995324;28;20222;-62
2022/08/03 06:57:55;;;;;;;2.60;2.40;;;;;;;25.25;56.79;98299.47;4995132;28;20205;-62
2022/08/03 07:00:21;;;;;;;2.42;2.33;;;;;;;25.30;57.14;98292.53;4995303;28;20713;-62
2022/08/03 07:02:47;;;;;;;2.30;2.20;;;;;;;25.22;57.74;98284.75;4995268;28;20662;-62
2022/08/03 07:05:13;;;;;;;2.67;2.42;;;;;;;25.38;56.95;98295.00;4994996;28;20179;-62
2022/08/03 07:07:39;;;;;;;2.60;2.40;;;;;;;25.49;56.91;98302.34;4995335;28;20194;-62
2022/08/03 07:10:06;;;;;;;2.40;2.30;;;;;;;25.62;56.80;98305.03;4995080;28;20551;-62
2022/08/03 07:12:32;;;;;;;3.20;2.75;;;;;;;25.74;56.77;98305.25;4995064;28;20538;-62
2022/08/03 07:14:59;;;;;;;3.90;3.05;;;;;;;25.76;56.23;98298.72;4994782;28;20184;-62
2022/08/03 07:17:25;;;;;;;3.42;3.13;;;;;;;25.80;55.66;98304.44;4994822;28;20175;-62
2022/08/03 07:19:50;;;;;;;4.05;3.20;;;;;;;25.87;55.80;98305.25;4994681;28;20174;-62
2022/08/03 07:22:16;;;;;;;3.75;2.83;;;;;;;25.91;56.34;98312.66;4994653;28;20262;-62
2022/08/03 07:24:41;;;;;;;5.63;2.60;;;;;;;25.97;55.76;98301.22;4995202;28;20181;-62
2022/08/03 07:27:08;;;;;;;3.08;2.63;;;;;;;26.05;54.62;98294.88;4994635;28;20167;-62
2022/08/03 07:29:35;;;;;;;5.63;3.10;;;;;;;26.21;54.71;98313.84;4994744;28;20233;-62
2022/08/03 07:32:01;;;;;;;3.17;2.65;;;;;;;26.38;54.37;98309.75;4994334;28;20198;-62
2022/08/03 07:34:26;;;;;;;2.80;2.55;;;;;;;26.53;53.00;98305.00;4994395;28;20282;-62
2022/08/03 07:36:52;;;;;;;4.68;2.90;;;;;;;26.63;53.38;98309.91;4994399;28;20175;-62
2022/08/03 07:39:17;;;;;;;4.70;2.92;;;;;;;26.77;52.74;98307.00;4994351;28;20178;-62
2022/08/03 07:41:43;;;;;;;2.92;2.67;;;;;;;26.92;52.15;98312.06;4994305;28;20183;-62
2022/08/03 07:44:08;;;;;;;3.60;2.70;;;;;;;26.99;51.78;98308.34;4994174;28;20645;-62
2022/08/03 07:46:34;;;;;;;3.95;3.00;;;;;;;27.09;51.84;98311.38;4994261;28;20258;-63
2022/08/03 07:49:00;;;;;;;2.83;2.60;;;;;;;27.02;52.36;98302.63;4993780;28;20182;-62
2022/08/03 07:51:26;;;;;;;2.90;2.67;;;;;;;26.91;52.72;98305.13;4994374;28;20183;-62
2022/08/03 07:53:51;;;;;;;5.03;2.90;;;;;;;26.92;52.68;98306.75;4994057;28;20715;-62
2022/08/03 07:56:16;;;;;;;4.20;3.17;;;;;;;26.98;52.52;98309.38;4994001;28;20628;-62
2022/08/03 07:58:42;;;;;;;5.70;3.17;;;;;;;26.96;52.29;98308.78;4994009;28;20171;-62
2022/08/03 08:01:07;;;;;;;4.82;3.13;;;;;;;27.08;52.63;98320.38;4993966;28;20198;-63
2022/08/03 08:03:33;;;;;;;4.07;3.67;;;;;;;27.05;52.34;98307.50;4993888;28;20676;-62
2022/08/03 08:05:58;;;;;;;4.38;3.30;;;;;;;27.08;51.58;98319.56;4993826;28;20209;-62
2022/08/03 08:08:24;;;;;;;4.55;3.33;;;;;;;27.13;51.98;98312.59;4993684;28;20665;-62
2022/08/03 08:10:49;;;;;;;5.03;3.22;;;;;;;27.04;51.55;98324.47;4993942;28;20195;-62
2022/08/03 08:13:14;;;;;;;3.40;3.10;;;;;;;27.13;51.58;98320.56;4993694;28;20653;-62
2022/08/03 08:15:40;;;;;;;3.22;2.88;;;;;;;27.18;51.24;98323.41;4993614;28;20255;-62
2022/08/03 08:18:05;;;;;;;3.28;3.03;;;;;;;27.32;51.46;98326.81;4993563;28;20178;-62
2022/08/03 08:20:34;;;;;;;3.28;2.97;;;;;;;27.56;50.56;98326.91;4992266;28;20171;-62
2022/08/03 08:23:01;;;;;;;3.30;3.00;;;;;;;27.79;50.28;98332.50;4993574;28;20229;-62
2022/08/03 08:25:27;;;;;;;5.15;3.33;;;;;;;27.96;49.54;98322.97;4993470;28;20718;-63
2022/08/03 08:27:52;;;;;;;5.13;2.88;;;;;;;28.03;48.79;98318.41;4993349;28;20695;-63
2022/08/03 08:30:23;;;;;;;2.95;2.75;;;;;;;27.96;48.51;98322.97;4993579;28;20195;-62
2022/08/03 08:32:49;;;;;;;5.88;3.17;;;;;;;28.13;49.07;98320.56;4993134;28;20238;-63
2022/08/03 08:35:16;;;;;;;4.18;3.13;;;;;;;28.20;48.64;98319.47;4993610;28;20203;-62
2022/08/03 08:37:42;;;;;;;5.88;2.92;;;;;;;28.12;48.43;98310.97;4993285;28;20656;-62
2022/08/03 08:40:09;;;;;;;4.18;3.70;;;;;;;28.33;48.03;98323.88;4993174;28;20181;-63
2022/08/03 08:42:39;;;;;;;4.57;3.15;;;;;;;28.38;47.56;98327.53;4993471;28;20261;-62
2022/08/03 08:45:07;;;;;;;4.05;2.80;;;;;;;28.49;46.98;98326.81;4993197;28;20179;-63
2022/08/03 08:47:36;;;;;;;3.55;3.25;;;;;;;28.62;46.50;98324.00;4993147;28;20175;-63
2022/08/03 08:50:01;;;;;;;3.88;3.50;;;;;;;28.64;47.38;98331.78;4993118;28;20205;-63
2022/08/03 08:52:28;;;;;;;3.83;3.53;;;;;;;28.74;46.56;98322.22;4993150;28;20254;-62
2022/08/03 08:55:03;;;;;;;3.45;3.13;;;;;;;28.77;46.82;98321.81;4993274;28;20186;-63
2022/08/03 08:57:43;;;;;;;4.55;3.08;;;;;;;28.87;45.57;98318.63;4993192;28;20228;-62
2022/08/03 09:00:13;;;;;;;4.05;3.13;;;;;;;29.00;46.35;98313.97;4992417;28;20190;-61
2022/08/03 09:02:43;;;;;;;3.72;3.40;;;;;;;29.08;45.73;98320.84;4993070;28;20159;-62
2022/08/03 09:05:11;;;;;;;5.45;3.28;;;;;;;29.11;46.10;98317.72;4993098;28;20184;-62
2022/08/03 09:07:37;;;;;;;4.60;3.40;;;;;;;28.95;46.37;98305.84;4992750;28;20190;-62
2022/08/03 09:10:03;;;;;;;4.63;3.88;;;;;;;28.98;46.63;98310.72;4992684;28;20195;-63
2022/08/03 09:12:29;;;;;;;4.18;3.88;;;;;;;29.12;46.08;98314.84;4992863;28;20266;-62
2022/08/03 09:14:54;;;;;;;7.68;3.60;;;;;;;28.99;45.93;98303.53;4992864;28;20179;-62
2022/08/03 09:17:20;;;;;;;3.70;3.40;;;;;;;29.20;46.04;98306.53;4992732;28;20178;-63
2022/08/03 09:20:07;;;;;;;5.13;3.58;;;;;;;29.34;45.77;98312.50;4992646;28;20171;-63
2022/08/03 09:22:32;;;;;;;3.55;3.25;;;;;;;29.51;45.35;98311.63;4992611;28;20189;-62
2022/08/03 09:25:10;;;;;;;5.47;3.00;;;;;;;29.53;43.70;98309.59;4992626;28;20175;-62
2022/08/03 09:27:43;;;;;;;4.72;2.88;;;;;;;29.62;43.76;98307.41;4992927;28;20248;-62
2022/08/03 09:30:17;;;;;;;4.75;3.30;;;;;;;29.71;43.54;98304.19;4992525;28;20589;-62
2022/08/03 09:32:44;;;;;;;3.65;3.33;;;;;;;29.76;43.07;98301.66;4992482;28;20220;-62
2022/08/03 09:35:11;;;;;;;6.00;2.92;;;;;;;29.94;43.43;98298.91;4992741;28;20269;-62
2022/08/03 09:37:36;;;;;;;7.57;3.13;;;;;;;30.10;42.53;98314.28;4992540;28;20179;-63
2022/08/03 09:40:03;;;;;;;4.80;3.22;;;;;;;30.26;43.10;98305.56;4992610;28;20605;-63
2022/08/03 09:42:29;;;;;;;3.80;3.50;;;;;;;30.39;42.94;98308.00;4992399;28;20739;-62
2022/08/03 09:44:54;;;;;;;11.85;3.60;;;;;;;30.57;42.68;98309.72;4992679;28;20179;-63
2022/08/03 09:47:36;;;;;;;9.82;3.60;;;;;;;30.58;42.50;98312.19;4992463;28;20171;-63
2022/08/03 09:50:06;;;;;;;4.75;3.38;;;;;;;30.81;41.70;98314.03;4992462;28;20191;-64
2022/08/03 09:52:42;;;;;;;3.08;2.88;;;;;;;30.95;41.71;98302.81;4992654;28;20179;-64
2022/08/03 09:55:12;;;;;;;2.97;2.78;;;;;;;31.06;40.48;98304.66;4992508;28;20155;-63
2022/08/03 09:57:39;;;;;;;7.75;2.88;;;;;;;31.03;40.60;98304.31;4992375;28;20262;-63
2022/08/03 10:00:13;;;;;;;5.30;3.08;;;;;;;30.94;40.44;98306.56;4992156;28;20179;-64
2022/08/03 10:02:41;;;;;;;4.03;2.75;;;;;;;30.93;40.71;98293.41;4990970;28;20238;-63
2022/08/03 10:05:08;;;;;;;7.85;3.42;;;;;;;30.83;41.34;98294.03;4992181;28;20174;-63
2022/08/03 10:07:48;;;;;;;6.97;6.30;;;;;;;31.03;41.03;98288.28;4992162;28;20195;-63
2022/08/03 10:10:14;;;;;;;4.68;4.28;;;;;;;31.24;40.49;98299.16;4992408;28;20190;-63
2022/08/03 10:12:41;;;;;;;4.32;4.03;;;;;;;31.21;39.92;98298.81;4995699;28;20179;-63
2022/08/03 10:15:09;;;;;;;3.78;3.47;;;;;;;30.93;40.40;98282.72;4995024;28;20198;-62
2022/08/03 10:17:35;;;;;;;7.88;5.20;;;;;;;31.09;39.43;98285.47;4996050;28;20559;-62
2022/08/03 10:20:02;;;;;;;8.90;7.10;;;;;;;30.95;39.94;98288.66;4995796;28;20178;-63
2022/08/03 10:22:32;;;;;;;11.63;9.23;;;;;;;31.14;39.80;98290.91;4995823;28;20171;-64
2022/08/03 10:25:03;;;;;;;14.73;9.60;;;;;;;31.33;39.21;98289.72;4996027;28;20171;-63
2022/08/03 10:27:35;;;;;;;16.77;8.50;;;;;;;31.60;39.14;98279.22;4995735;28;20171;-63
2022/08/03 10:30:03;;;;;;;9.30;7.40;;;;;;;31.84;37.69;98278.88;4995569;28;20195;-63
2022/08/03 10:32:38;;;;;;;9.75;6.95;;;;;;;32.00;38.35;98275.38;4995310;28;20195;-62
2022/08/03 10:35:05;;;;;;;6.15;5.50;;;;;;;32.18;38.29;98275.09;4995825;28;20560;-62
2022/08/03 10:37:36;;;;;;;5.20;4.70;;;;;;;32.15;38.17;98275.59;4995496;28;20175;-62
2022/08/03 10:40:01;;;;;;;4.13;3.75;;;;;;;32.20;38.28;98281.03;4995848;28;20160;-62
2022/08/03 10:42:30;;;;;;;4.35;3.97;;;;;;;31.90;38.71;98274.41;4995550;28;20186;-62
2022/08/03 10:45:04;;;;;;;5.05;4.60;;;;;;;31.89;38.75;98278.94;4994745;28;20214;-63
2022/08/03 10:47:31;;;;;;;17.45;8.98;;;;;;;32.02;39.17;98269.78;4995065;28;20163;-62
2022/08/03 10:49:58;;;;;;;45.67;16.45;;;;;;;32.19;38.62;98273.25;4993935;28;20191;-62
2022/08/03 10:52:24;;;;;;;3.72;3.42;;;;;;;32.30;37.78;98269.69;4995251;28;20183;-62
2022/08/03 10:57:47;;;;;;;9.73;4.88;;;;;;;32.74;37.23;98261.44;4995035;28;20225;-63
2022/08/03 11:00:17;;;;;;;5.85;4.80;;;;;;;32.56;37.02;98255.56;4995107;28;20183;-64
2022/08/03 11:03:07;;;;;;;5.47;4.70;;;;;;;32.61;36.78;98259.16;4995641;28;20159;-63
2022/08/03 11:05:35;;;;;;;5.22;3.15;;;;;;;32.78;35.75;98257.25;4996145;28;20164;-63
2022/08/03 11:08:30;;;;;;;4.43;4.03;;;;;;;33.01;35.54;98261.53;4993742;28;20174;-63
2022/08/03 11:11:20;;;;;;;5.18;4.60;;;;;;;33.01;35.76;98250.81;4995064;28;20293;-63
2022/08/03 11:14:07;;;;;;;3.22;2.90;;;;;;;33.00;35.63;98255.34;4994785;28;20179;-63
2022/08/03 11:16:45;;;;;;;9.27;3.55;;;;;;;32.85;36.40;98252.50;4994661;28;20727;-63
2022/08/03 11:19:21;;;;;;;6.85;4.05;;;;;;;32.31;37.25;98249.88;4994665;28;20163;-63
2022/08/03 11:24:39;;;;;;;2.83;2.63;;;;;;;33.15;35.17;98247.47;4994065;28;20669;-63
2022/08/03 11:27:17;;;;;;;4.47;2.97;;;;;;;33.39;34.77;98254.19;4994691;28;20175;-63
2022/08/03 11:30:07;;;;;;;5.53;2.70;;;;;;;33.72;34.04;98251.28;4994430;28;20203;-64
2022/08/03 11:32:39;;;;;;;4.07;2.47;;;;;;;34.07;33.79;98242.69;4994224;28;20215;-64
2022/08/03 11:35:13;;;;;;;3.22;2.90;;;;;;;34.38;33.58;98242.66;4994425;28;20194;-63
2022/08/03 11:37:57;;;;;;;3.40;2.53;;;;;;;34.68;31.97;98248.16;4994588;28;20194;-63
2022/08/03 11:40:41;;;;;;;4.63;2.67;;;;;;;34.88;31.89;98240.22;5009003;28;20248;-63
2022/08/03 11:43:09;;;;;;;2.47;2.38;;;;;;;35.10;31.03;98243.53;4994571;28;20179;-63
2022/08/03 11:45:36;;;;;;;6.20;3.40;;;;;;;34.90;32.37;98239.97;4994197;28;20266;-63
2022/08/03 11:48:15;;;;;;;3.53;2.45;;;;;;;34.03;32.94;98231.66;4994253;28;20171;-63
2022/08/03 11:50:44;;;;;;;12.57;5.90;;;;;;;33.45;34.45;98225.53;4994394;28;20680;-63